الصفحة الرئيسية
METAR-TAF:

METAR-TAF

مطار :

كيميروفو, روسيا

دائرة عرض: 55-19-48N, خط طول: 086-04-48E, ارتفاع: 260 متر

مراقبة الطقس الحالي

تاريخ ووقت الإصدار 17 دقيقة قبل الساعة 21:30UTC
ريح 8 عقدة من الجنوب
درجة الحرارة -16°درجة مئوية
الرطوبة 71%
ضغط 1032 hPa
الرؤية 10 كم أو أكثر
الغيوم لا تقل 1500 م ولا وجود لمزنة ركامية السحاب الأسود

METAR: UNEE 182130Z 17004MPS CAVOK M16/M20 Q1032 R23/851040 NOSIG RMK QFE751

زمن: 04:47 (21:47 UTC)

توقعات

تاريخ ووقت الإصدار 1ساعة و 47 دقيقة قبل الساعة 20:00UTC
التوقعات صالحة من18 الساعة 21 UTC إلى 19 الساعة 21 UTC
ريح 6 عقدة من الجنوب تتزايد حتى 16 عقدة
الرؤية 10 كم أو أكثر
غيوم متفرقة على ارتفاع 2000 قدم
مؤقت
من 18 الساعة 21 UTC إلى 19 الساعة 15 UTC
الرؤية: 3100 متر
غيوم مفككة على ارتفاع 1300 قدم
ثلوج خفيفة

TAF: UNEE 182000Z 1821/1921 17003G08MPS 9999 SCT020 TEMPO 1821/1915 3100 -SN BKN013

أرصاد الطقس والتوقعات من أكثر من 4000 مطار (تقارير الطقس للمطار METAR والتنبؤ بالطقس بالمطارTAF).

المحطات المتاحة هي النقط الصفراء والحمراء على الخريطة.

حرك المؤشر فوق النقطة لمعرفة اسم المحطة.

ثم انقر لمعرفة أرصاد وتوقعات الطقس.

لتغيير الخارطة: اضغط على الأزرار الخضراء مع رمز الصليب الأسود للتكبير. على الزر الأخضر مع شرطة للتصغير، أو على الأسهم الخضراء للخرائط المجاورة.


METAR-TAF: